createdAt,value
2019-03-09T00:00:40.450Z,7.33
2019-03-09T00:03:11.316Z,7.03
2019-03-09T00:05:42.131Z,7.80
2019-03-09T00:08:12.907Z,11.37
2019-03-09T00:10:44.318Z,8.77
2019-03-09T00:13:16.390Z,10.47
2019-03-09T00:15:47.219Z,9.70
2019-03-09T00:18:18.048Z,10.57
2019-03-09T00:20:48.887Z,11.53
2019-03-09T00:23:21.476Z,6.53
2019-03-09T00:26:09.813Z,9.53
2019-03-09T00:28:57.848Z,10.90
2019-03-09T00:31:36.075Z,11.83
2019-03-09T00:34:06.999Z,9.73
2019-03-09T00:36:37.743Z,8.90
2019-03-09T00:39:08.670Z,10.23
2019-03-09T00:41:39.518Z,9.40
2019-03-09T00:44:10.396Z,7.73
2019-03-09T00:46:40.846Z,8.83
2019-03-09T00:49:12.324Z,11.80
2019-03-09T00:51:43.291Z,7.57
2019-03-09T00:54:15.175Z,9.20
2019-03-09T00:56:46.283Z,7.73
2019-03-09T00:59:17.216Z,9.43
2019-03-09T01:01:49.638Z,9.10
2019-03-09T01:04:20.425Z,9.23
2019-03-09T01:06:52.784Z,12.23
2019-03-09T01:09:23.522Z,9.23
2019-03-09T01:11:55.721Z,11.40
2019-03-09T01:14:26.126Z,6.90
2019-03-09T01:16:56.869Z,11.90
2019-03-09T01:19:27.358Z,13.63
2019-03-09T01:21:58.218Z,6.90
2019-03-09T01:24:29.082Z,9.60
2019-03-09T01:26:59.890Z,11.10
2019-03-09T01:29:30.385Z,8.10
2019-03-09T01:32:00.809Z,9.13
2019-03-09T01:34:31.709Z,10.07
2019-03-09T01:37:02.531Z,8.83
2019-03-09T01:39:33.305Z,8.50
2019-03-09T01:42:04.195Z,10.97
2019-03-09T01:44:35.033Z,9.80
2019-03-09T01:47:05.767Z,10.43
2019-03-09T01:49:36.525Z,10.20
2019-03-09T01:52:07.347Z,10.63
2019-03-09T01:54:38.123Z,9.57
2019-03-09T01:57:08.817Z,10.77
2019-03-09T01:59:39.655Z,9.23
2019-03-09T02:02:10.379Z,9.93
2019-03-09T02:04:41.110Z,10.47
2019-03-09T02:07:11.858Z,9.73
2019-03-09T02:09:42.683Z,10.83
2019-03-09T02:12:13.956Z,10.03
2019-03-09T02:14:44.853Z,9.07
2019-03-09T02:17:15.614Z,8.17
2019-03-09T02:19:46.463Z,8.23
2019-03-09T02:22:17.280Z,7.97
2019-03-09T02:24:47.779Z,7.47
2019-03-09T02:27:18.543Z,7.67
2019-03-09T02:29:49.377Z,7.93
2019-03-09T02:32:20.106Z,8.70
2019-03-09T02:34:50.893Z,9.23
2019-03-09T02:37:21.699Z,9.47
2019-03-09T02:39:57.012Z,8.90
2019-03-09T02:42:27.739Z,9.03
2019-03-09T02:44:58.214Z,9.43
2019-03-09T02:47:28.639Z,7.87
2019-03-09T02:49:59.451Z,9.20
2019-03-09T02:52:30.163Z,8.73
2019-03-09T02:55:00.922Z,7.87
2019-03-09T02:57:31.656Z,7.47
2019-03-09T03:00:03.446Z,7.57
2019-03-09T03:02:35.989Z,8.47
2019-03-09T03:05:07.434Z,7.47
2019-03-09T03:07:38.293Z,8.60
2019-03-09T03:10:09.911Z,9.10
2019-03-09T03:12:40.850Z,10.30
2019-03-09T03:15:13.932Z,8.93
2019-03-09T03:17:44.700Z,9.93
2019-03-09T03:20:16.235Z,9.00
2019-03-09T03:22:46.649Z,9.87
2019-03-09T03:25:17.415Z,9.03
2019-03-09T03:27:48.454Z,7.77
2019-03-09T03:30:19.293Z,8.00
2019-03-09T03:32:50.435Z,7.13
2019-03-09T03:35:21.192Z,9.33
2019-03-09T03:37:52.013Z,9.10
2019-03-09T03:40:22.729Z,8.20
2019-03-09T03:42:53.568Z,7.33
2019-03-09T03:45:24.038Z,6.83
2019-03-09T03:47:54.943Z,7.20
2019-03-09T03:50:25.658Z,8.97
2019-03-09T03:52:56.618Z,8.60
2019-03-09T03:55:27.470Z,8.83
2019-03-09T03:57:58.292Z,9.43
2019-03-09T04:00:29.010Z,8.80
2019-03-09T04:02:59.874Z,8.63
2019-03-09T04:05:30.708Z,9.77
2019-03-09T04:08:01.650Z,8.23
2019-03-09T04:10:32.310Z,9.23
2019-03-09T04:13:03.700Z,8.00
2019-03-09T04:15:34.478Z,8.00
2019-03-09T04:18:05.260Z,9.13
2019-03-09T04:20:35.950Z,8.13
2019-03-09T04:23:06.738Z,11.10
2019-03-09T04:25:37.477Z,8.17
2019-03-09T04:28:08.217Z,7.73
2019-03-09T04:30:39.050Z,8.53
2019-03-09T04:33:09.786Z,9.20
2019-03-09T04:35:40.851Z,7.37
2019-03-09T04:38:11.682Z,10.27
2019-03-09T04:40:42.130Z,9.20
2019-03-09T04:43:12.936Z,8.57
2019-03-09T04:45:43.681Z,9.40
2019-03-09T04:48:14.495Z,8.43
2019-03-09T04:50:44.850Z,8.23
2019-03-09T04:53:15.551Z,9.07
2019-03-09T04:55:46.408Z,6.63
2019-03-09T04:58:17.124Z,6.23
2019-03-09T05:00:47.844Z,10.50
2019-03-09T05:03:18.751Z,10.87
2019-03-09T05:05:49.535Z,6.87
2019-03-09T05:08:38.084Z,8.33
2019-03-09T05:11:10.154Z,7.70
2019-03-09T05:13:42.432Z,8.80
2019-03-09T05:16:12.894Z,9.47
2019-03-09T05:18:43.598Z,7.67
2019-03-09T05:21:14.448Z,9.67
2019-03-09T05:23:45.281Z,8.17
2019-03-09T05:26:16.121Z,8.67
2019-03-09T05:28:46.922Z,9.93
2019-03-09T05:31:17.688Z,9.67
2019-03-09T05:33:48.538Z,8.40
2019-03-09T05:36:19.355Z,9.10
2019-03-09T05:38:51.219Z,8.43
2019-03-09T05:41:22.243Z,8.20
2019-03-09T05:43:53.049Z,8.27
2019-03-09T05:46:23.740Z,11.17
2019-03-09T05:48:54.576Z,9.33
2019-03-09T05:51:25.008Z,8.17
2019-03-09T05:53:55.912Z,9.13
2019-03-09T05:56:27.248Z,7.40
2019-03-09T05:58:58.535Z,7.33
2019-03-09T06:01:29.351Z,9.50
2019-03-09T06:04:00.340Z,8.37
2019-03-09T06:06:31.246Z,7.10
2019-03-09T06:09:02.060Z,10.73
2019-03-09T06:11:33.352Z,8.87
2019-03-09T06:14:04.445Z,8.93
2019-03-09T06:16:35.225Z,9.37
2019-03-09T06:19:05.922Z,8.80
2019-03-09T06:21:36.683Z,9.23
2019-03-09T06:24:07.483Z,8.97
2019-03-09T06:26:38.325Z,11.47
2019-03-09T06:29:09.052Z,10.57
2019-03-09T06:31:39.483Z,10.33
2019-03-09T06:34:10.325Z,9.27
2019-03-09T06:36:47.001Z,7.60
2019-03-09T06:39:17.804Z,10.63
2019-03-09T06:42:03.688Z,9.17
2019-03-09T06:44:34.116Z,8.07
2019-03-09T06:47:04.989Z,7.77
2019-03-09T06:49:35.747Z,8.73
2019-03-09T06:52:06.590Z,9.40
2019-03-09T06:54:37.520Z,11.80
2019-03-09T06:57:13.877Z,10.40
2019-03-09T06:59:40.814Z,7.83
2019-03-09T07:02:11.418Z,8.70
2019-03-09T07:04:42.201Z,10.27
2019-03-09T07:07:13.056Z,7.73
2019-03-09T07:09:43.466Z,9.60
2019-03-09T07:12:14.271Z,7.50
2019-03-09T07:15:00.272Z,9.27
2019-03-09T07:17:31.459Z,8.23
2019-03-09T07:20:11.865Z,9.07
2019-03-09T07:22:34.625Z,9.30
2019-03-09T07:25:07.208Z,9.37
2019-03-09T07:27:37.575Z,7.13
2019-03-09T07:30:11.639Z,8.87
2019-03-09T07:32:43.955Z,6.20
2019-03-09T07:35:14.643Z,7.70
2019-03-09T07:37:45.509Z,7.93
2019-03-09T07:40:16.416Z,5.40
2019-03-09T07:42:47.149Z,6.10
2019-03-09T07:45:18.115Z,7.27
2019-03-09T07:47:48.937Z,6.23
2019-03-09T07:50:19.383Z,5.23
2019-03-09T07:52:50.389Z,9.03
2019-03-09T07:55:22.901Z,4.80
2019-03-09T07:58:01.585Z,6.00
2019-03-09T08:00:32.568Z,5.87
2019-03-09T08:03:03.500Z,4.73
2019-03-09T08:05:34.402Z,5.27
2019-03-09T08:08:05.135Z,4.50
2019-03-09T08:10:35.976Z,5.77
2019-03-09T08:13:06.713Z,4.00
2019-03-09T08:15:38.796Z,6.60
2019-03-09T08:18:11.169Z,4.57
2019-03-09T08:20:42.120Z,3.10
2019-03-09T08:23:12.826Z,3.30
2019-03-09T08:25:43.590Z,3.37
2019-03-09T08:28:16.315Z,5.23
2019-03-09T08:30:46.888Z,3.47
2019-03-09T08:33:19.196Z,4.90
2019-03-09T08:35:49.971Z,2.53
2019-03-09T08:38:22.517Z,2.60
2019-03-09T08:40:53.286Z,2.87
2019-03-09T08:43:24.129Z,2.60
2019-03-09T08:45:54.993Z,7.10
2019-03-09T08:48:27.322Z,5.07
2019-03-09T08:50:58.071Z,2.73
2019-03-09T08:53:31.071Z,3.67
2019-03-09T08:56:01.018Z,2.93
2019-03-09T08:58:31.904Z,2.73
2019-03-09T09:01:06.137Z,4.30
2019-03-09T09:03:40.271Z,2.23
2019-03-09T09:06:11.170Z,2.67
2019-03-09T09:08:43.657Z,3.27
2019-03-09T09:11:16.877Z,3.47
2019-03-09T09:13:51.501Z,3.27
2019-03-09T09:16:22.325Z,3.33
2019-03-09T09:18:53.159Z,2.33
2019-03-09T09:21:24.005Z,2.33
2019-03-09T09:23:56.431Z,6.80
2019-03-09T09:26:27.201Z,5.23
2019-03-09T09:28:57.943Z,5.23
2019-03-09T09:31:34.716Z,6.23
2019-03-09T09:34:05.467Z,7.37
2019-03-09T09:36:37.738Z,6.87
2019-03-09T09:39:08.761Z,7.60
2019-03-09T09:41:39.558Z,7.60
2019-03-09T09:44:12.899Z,7.97
2019-03-09T09:46:43.832Z,6.53
2019-03-09T09:49:14.685Z,7.90
2019-03-09T09:51:45.411Z,9.00
2019-03-09T09:54:16.404Z,6.43
2019-03-09T09:56:48.164Z,6.47
2019-03-09T09:59:22.050Z,7.07
2019-03-09T10:01:52.828Z,7.67
2019-03-09T10:04:23.788Z,5.37
2019-03-09T10:06:54.645Z,6.53
2019-03-09T10:09:25.476Z,5.27
2019-03-09T10:11:56.402Z,8.00
2019-03-09T10:14:27.130Z,9.43
2019-03-09T10:17:03.644Z,6.37
2019-03-09T10:19:31.052Z,5.77
2019-03-09T10:22:01.899Z,7.83
2019-03-09T10:24:32.644Z,9.33
2019-03-09T10:27:03.455Z,7.83
2019-03-09T10:29:34.312Z,11.47
2019-03-09T10:32:05.158Z,17.63
2019-03-09T10:34:36.166Z,10.07
2019-03-09T10:37:06.918Z,9.63
2019-03-09T10:39:37.665Z,13.43
2019-03-09T10:42:08.504Z,11.13
2019-03-09T10:44:39.316Z,12.27
2019-03-09T10:47:10.158Z,11.57
2019-03-09T10:49:40.990Z,9.87
2019-03-09T10:52:11.722Z,11.83
2019-03-09T10:54:42.608Z,11.50
2019-03-09T10:57:13.508Z,10.67
2019-03-09T10:59:44.336Z,13.70
2019-03-09T11:02:14.717Z,16.27
2019-03-09T11:04:45.505Z,29.67
2019-03-09T11:07:16.227Z,13.03
2019-03-09T11:09:47.067Z,9.70
2019-03-09T11:12:17.908Z,7.13
2019-03-09T11:14:50.380Z,8.63
2019-03-09T11:17:21.226Z,6.93
2019-03-09T11:19:52.073Z,6.53
2019-03-09T11:22:22.483Z,9.30
2019-03-09T11:25:02.898Z,8.23
2019-03-09T11:27:26.620Z,10.10
2019-03-09T11:29:57.477Z,11.13
2019-03-09T11:32:28.288Z,8.50
2019-03-09T11:34:59.202Z,8.10
2019-03-09T11:37:30.063Z,7.27
2019-03-09T11:40:00.800Z,9.30
2019-03-09T11:42:31.649Z,5.37
2019-03-09T11:45:08.071Z,7.77
2019-03-09T11:47:38.824Z,10.63
2019-03-09T11:50:14.582Z,8.17
2019-03-09T11:52:45.644Z,5.20
2019-03-09T11:55:17.646Z,5.77
2019-03-09T11:57:48.435Z,6.00
2019-03-09T12:00:23.067Z,6.10
2019-03-09T12:02:53.906Z,9.37
2019-03-09T12:05:24.632Z,6.37
2019-03-09T12:07:56.022Z,6.83
2019-03-09T12:10:27.019Z,7.00
2019-03-09T12:12:57.606Z,9.63
2019-03-09T12:15:28.368Z,7.70
2019-03-09T12:17:59.110Z,7.90
2019-03-09T12:20:31.227Z,7.33
2019-03-09T12:23:10.740Z,6.40
2019-03-09T12:25:41.654Z,9.03
2019-03-09T12:28:12.445Z,7.53
2019-03-09T12:30:43.423Z,5.93
2019-03-09T12:33:15.808Z,6.70
2019-03-09T12:35:46.723Z,7.87
2019-03-09T12:38:17.581Z,7.47
2019-03-09T12:40:48.558Z,9.47
2019-03-09T12:43:19.363Z,7.10
2019-03-09T12:45:52.864Z,10.03
2019-03-09T12:48:23.825Z,6.20
2019-03-09T12:50:54.500Z,7.20
2019-03-09T12:53:25.386Z,8.80
2019-03-09T12:55:56.314Z,5.67
2019-03-09T12:58:27.267Z,8.17
2019-03-09T13:00:59.658Z,6.67
2019-03-09T13:03:30.467Z,6.83
2019-03-09T13:06:02.860Z,6.93
2019-03-09T13:08:33.442Z,9.00
2019-03-09T13:11:04.390Z,7.73
2019-03-09T13:13:35.260Z,5.80
2019-03-09T13:16:11.975Z,6.90
2019-03-09T13:18:48.067Z,6.37
2019-03-09T13:21:18.898Z,7.27
2019-03-09T13:23:49.646Z,6.37
2019-03-09T13:26:20.385Z,6.17
2019-03-09T13:28:51.387Z,10.00
2019-03-09T13:31:22.268Z,6.70
2019-03-09T13:33:53.135Z,9.97
2019-03-09T13:36:23.818Z,7.67
2019-03-09T13:38:54.570Z,9.30
2019-03-09T13:41:25.428Z,5.93
2019-03-09T13:43:56.277Z,7.50
2019-03-09T13:46:27.080Z,8.20
2019-03-09T13:48:57.820Z,6.70
2019-03-09T13:51:29.156Z,6.73
2019-03-09T13:53:59.996Z,9.37
2019-03-09T13:56:30.884Z,8.57
2019-03-09T13:59:03.415Z,9.20
2019-03-09T14:01:34.252Z,7.13
2019-03-09T14:04:05.521Z,7.77
2019-03-09T14:06:36.491Z,7.30
2019-03-09T14:09:08.244Z,8.67
2019-03-09T14:11:39.136Z,7.63
2019-03-09T14:14:11.916Z,6.77
2019-03-09T14:16:42.960Z,8.23
2019-03-09T14:19:13.789Z,6.00
2019-03-09T14:21:44.935Z,8.10
2019-03-09T14:24:15.885Z,8.87
2019-03-09T14:26:46.980Z,6.37
2019-03-09T14:29:18.324Z,5.73
2019-03-09T14:31:51.307Z,6.07
2019-03-09T14:34:21.930Z,7.40
2019-03-09T14:36:52.880Z,11.07
2019-03-09T14:39:23.791Z,15.07
2019-03-09T14:41:54.800Z,10.00
2019-03-09T14:44:38.382Z,8.07
2019-03-09T14:47:11.942Z,10.23
2019-03-09T14:49:53.369Z,8.53
2019-03-09T14:52:24.214Z,10.83
2019-03-09T14:54:55.417Z,8.27
2019-03-09T14:57:26.524Z,8.57
2019-03-09T14:59:58.708Z,8.57
2019-03-09T15:02:29.244Z,7.87
2019-03-09T15:05:00.322Z,9.70
2019-03-09T15:07:31.133Z,8.77
2019-03-09T15:10:02.980Z,9.17
2019-03-09T15:12:33.802Z,8.37
2019-03-09T15:15:06.901Z,7.83
2019-03-09T15:17:37.842Z,5.57
2019-03-09T15:20:11.259Z,7.03
2019-03-09T15:22:42.088Z,5.60
2019-03-09T15:25:19.290Z,4.57
2019-03-09T15:27:52.881Z,7.80
2019-03-09T15:30:23.845Z,6.77
2019-03-09T15:32:54.835Z,5.03
2019-03-09T15:35:25.708Z,4.87
2019-03-09T15:37:59.423Z,5.83
2019-03-09T15:40:31.381Z,4.30
2019-03-09T15:43:02.336Z,4.10
2019-03-09T15:45:34.036Z,6.67
2019-03-09T15:48:05.475Z,6.20
2019-03-09T15:50:36.273Z,4.57
2019-03-09T15:53:07.200Z,6.93
2019-03-09T15:55:38.046Z,4.97
2019-03-09T15:58:08.843Z,5.27
2019-03-09T16:00:39.787Z,7.93
2019-03-09T16:03:10.649Z,5.63
2019-03-09T16:05:41.680Z,5.90
2019-03-09T16:08:12.625Z,5.33
2019-03-09T16:10:43.464Z,4.93
2019-03-09T16:13:14.064Z,5.00
2019-03-09T16:15:44.607Z,5.00
2019-03-09T16:18:15.530Z,6.23
2019-03-09T16:20:46.255Z,5.07
2019-03-09T16:23:17.247Z,6.00
2019-03-09T16:25:48.392Z,6.20
2019-03-09T16:28:19.356Z,4.47
2019-03-09T16:30:50.153Z,5.57
2019-03-09T16:33:20.984Z,3.87
2019-03-09T16:35:51.819Z,5.73
2019-03-09T16:38:22.689Z,3.20
2019-03-09T16:40:53.210Z,3.67
2019-03-09T16:43:24.215Z,3.30
2019-03-09T16:45:56.527Z,3.90
2019-03-09T16:48:28.927Z,4.63
2019-03-09T16:51:06.040Z,3.50
2019-03-09T16:53:41.322Z,5.00
2019-03-09T16:56:12.122Z,6.50
2019-03-09T16:58:42.944Z,5.13
2019-03-09T17:01:13.715Z,3.37
2019-03-09T17:03:44.551Z,5.60
2019-03-09T17:06:15.028Z,5.00
2019-03-09T17:09:05.523Z,4.03
2019-03-09T17:14:29.505Z,5.47
2019-03-09T17:17:00.309Z,7.53
2019-03-09T17:19:31.145Z,7.23
2019-03-09T17:22:06.753Z,4.90
2019-03-09T17:24:39.061Z,3.93
2019-03-09T17:27:13.644Z,3.93
2019-03-09T17:29:46.158Z,5.27
2019-03-09T17:32:25.614Z,6.63
2019-03-09T17:34:49.348Z,4.90
2019-03-09T17:37:20.198Z,5.33
2019-03-09T17:39:51.029Z,6.00
2019-03-09T17:42:21.916Z,4.57
2019-03-09T17:44:52.689Z,3.80
2019-03-09T17:47:23.435Z,4.77
2019-03-09T17:49:56.711Z,4.87
2019-03-09T17:52:27.563Z,3.90
2019-03-09T17:54:58.071Z,6.37
2019-03-09T17:57:28.960Z,5.47
2019-03-09T18:00:00.309Z,5.50
2019-03-09T18:02:31.117Z,4.93
2019-03-09T18:05:01.867Z,5.43
2019-03-09T18:07:32.673Z,6.00
2019-03-09T18:10:06.138Z,7.17
2019-03-09T18:12:36.926Z,6.30
2019-03-09T18:15:10.155Z,6.83
2019-03-09T18:17:41.094Z,7.50
2019-03-09T18:20:12.085Z,6.20
2019-03-09T18:22:42.886Z,6.00
2019-03-09T18:25:13.985Z,7.17
2019-03-09T18:27:44.839Z,16.20
2019-03-09T18:30:15.962Z,6.07
2019-03-09T18:32:48.068Z,5.27
2019-03-09T18:35:18.758Z,5.83
2019-03-09T18:37:49.937Z,6.90
2019-03-09T18:40:20.759Z,6.47
2019-03-09T18:42:51.630Z,5.83
2019-03-09T18:45:25.886Z,8.33
2019-03-09T18:47:56.822Z,6.90
2019-03-09T18:50:27.552Z,7.10
2019-03-09T18:52:58.450Z,5.83
2019-03-09T18:55:29.247Z,6.93
2019-03-09T18:58:00.120Z,7.10
2019-03-09T19:00:30.935Z,7.83
2019-03-09T19:03:01.934Z,12.37
2019-03-09T19:05:32.898Z,7.73
2019-03-09T19:08:03.364Z,7.47
2019-03-09T19:10:36.790Z,8.93
2019-03-09T19:13:07.778Z,5.70
2019-03-09T19:15:39.087Z,6.23
2019-03-09T19:18:10.680Z,9.17
2019-03-09T19:20:41.478Z,8.27
2019-03-09T19:23:12.785Z,6.80
2019-03-09T19:25:43.673Z,8.73
2019-03-09T19:28:15.907Z,7.60
2019-03-09T19:30:46.790Z,9.57
2019-03-09T19:33:20.045Z,8.63
2019-03-09T19:35:50.925Z,7.70
2019-03-09T19:38:23.293Z,7.03
2019-03-09T19:40:54.134Z,8.63
2019-03-09T19:43:24.865Z,9.03
2019-03-09T19:45:55.699Z,9.13
2019-03-09T19:48:26.585Z,7.80
2019-03-09T19:51:00.284Z,13.60
2019-03-09T19:53:31.190Z,10.00
2019-03-09T19:56:01.998Z,10.90
2019-03-09T19:58:32.416Z,7.90
2019-03-09T20:01:03.092Z,11.00
2019-03-09T20:03:33.814Z,8.93
2019-03-09T20:06:04.651Z,12.57
2019-03-09T20:08:36.193Z,8.47
2019-03-09T20:11:06.924Z,8.40
2019-03-09T20:13:37.670Z,10.80
2019-03-09T20:16:08.398Z,8.20
2019-03-09T20:18:40.797Z,9.80
2019-03-09T20:21:11.528Z,10.47
2019-03-09T20:23:42.451Z,8.30
2019-03-09T20:26:13.415Z,10.07
2019-03-09T20:28:44.208Z,7.67
2019-03-09T20:31:15.630Z,13.30
2019-03-09T20:33:46.505Z,8.30
2019-03-09T20:36:17.519Z,5.87
2019-03-09T20:38:48.300Z,6.90
2019-03-09T20:41:20.666Z,6.73
2019-03-09T20:43:51.477Z,4.77
2019-03-09T20:46:22.725Z,5.43
2019-03-09T20:48:53.598Z,4.33
2019-03-09T20:51:24.532Z,6.20
2019-03-09T20:53:55.507Z,4.63
2019-03-09T20:56:29.573Z,5.67
2019-03-09T20:59:00.499Z,3.63
2019-03-09T21:01:34.544Z,4.37
2019-03-09T21:04:05.520Z,4.27
2019-03-09T21:06:36.286Z,6.60
2019-03-09T21:09:09.748Z,5.83
2019-03-09T21:11:40.638Z,5.23
2019-03-09T21:14:13.126Z,4.03
2019-03-09T21:16:43.922Z,7.63
2019-03-09T21:19:14.918Z,3.37
2019-03-09T21:21:47.697Z,6.23
2019-03-09T21:24:18.434Z,7.63
2019-03-09T21:26:49.650Z,6.90
2019-03-09T21:29:20.170Z,9.03
2019-03-09T21:31:51.059Z,10.33
2019-03-09T21:34:21.882Z,7.30
2019-03-09T21:36:55.554Z,8.17
2019-03-09T21:39:28.866Z,8.77
2019-03-09T21:42:01.478Z,8.47
2019-03-09T21:44:32.273Z,6.67
2019-03-09T21:47:03.710Z,5.10
2019-03-09T21:49:41.200Z,7.07
2019-03-09T21:52:11.337Z,7.03
2019-03-09T21:54:42.181Z,9.23
2019-03-09T21:57:13.094Z,8.53
2019-03-09T21:59:43.948Z,9.20
2019-03-09T22:02:14.663Z,8.60
2019-03-09T22:04:45.511Z,9.27
2019-03-09T22:07:16.338Z,8.97
2019-03-09T22:09:47.067Z,7.83
2019-03-09T22:12:17.800Z,6.80
2019-03-09T22:14:48.299Z,7.83
2019-03-09T22:17:19.102Z,8.30
2019-03-09T22:19:51.472Z,6.30
2019-03-09T22:22:25.031Z,7.40
2019-03-09T22:24:57.054Z,8.67
2019-03-09T22:27:27.944Z,6.67
2019-03-09T22:29:58.673Z,6.27
2019-03-09T22:32:29.450Z,8.60
2019-03-09T22:35:00.709Z,7.13
2019-03-09T22:37:31.203Z,6.87
2019-03-09T22:40:04.283Z,13.30
2019-03-09T22:42:36.626Z,8.47
2019-03-09T22:45:14.707Z,7.83
2019-03-09T22:47:48.149Z,6.33
2019-03-09T22:50:22.039Z,7.63
2019-03-09T22:52:52.801Z,7.10
2019-03-09T22:55:25.674Z,6.47
2019-03-09T22:57:59.699Z,7.83
2019-03-09T23:00:31.454Z,6.73
2019-03-09T23:03:01.906Z,5.57
2019-03-09T23:05:32.750Z,7.47
2019-03-09T23:08:03.674Z,3.90
2019-03-09T23:10:34.394Z,7.70
2019-03-09T23:13:05.235Z,6.30
2019-03-09T23:15:36.061Z,5.13
2019-03-09T23:18:06.795Z,10.40
2019-03-09T23:20:39.405Z,6.43
2019-03-09T23:23:10.433Z,5.47
2019-03-09T23:25:41.248Z,8.57
2019-03-09T23:28:14.446Z,6.83
2019-03-09T23:30:47.765Z,6.07
2019-03-09T23:33:18.654Z,6.10
2019-03-09T23:36:05.984Z,5.27
2019-03-09T23:38:38.574Z,7.27
2019-03-09T23:41:14.639Z,7.10
2019-03-09T23:43:46.998Z,9.53
2019-03-09T23:46:17.738Z,6.23
2019-03-09T23:48:50.294Z,4.27
2019-03-09T23:51:21.311Z,5.10
2019-03-09T23:53:51.805Z,5.70
2019-03-09T23:56:22.570Z,6.00
2019-03-09T23:58:53.350Z,6.67
